Time;durP1;ratioP1;P1;durP2;ratioP2;P2;SDS_P1;SDS_P2;PMS_P1;PMS_P2;Temp;Humidity;BMP_temperature;BMP_pressure;BME280_temperature;BME280_humidity;BME280_pressure;Samples;Min_cycle;Max_cycle;Signal;HPM_P1;HPM_P2
2022/09/01 00:01:41;;;;;;;27.17;21.50;;;14.40;99.90;;;;;;5072284;28;20021;-73
2022/09/01 00:04:10;;;;;;;23.20;20.65;;;14.30;99.90;;;;;;5071406;28;20082;-73
2022/09/01 00:06:37;;;;;;;23.40;19.73;;;14.30;99.90;;;;;;5080295;28;20062;-72
2022/09/01 00:09:07;;;;;;;22.33;19.33;;;14.30;99.90;;;;;;5087330;28;20035;-73
2022/09/01 00:11:33;;;;;;;23.15;20.58;;;14.30;99.90;;;;;;5090681;28;20028;-74
2022/09/01 00:14:00;;;;;;;23.25;19.35;;;14.30;99.90;;;;;;5089955;28;20029;-74
2022/09/01 00:16:27;;;;;;;22.98;20.50;;;14.20;99.90;;;;;;5086557;28;20031;-74
2022/09/01 00:18:53;;;;;;;22.85;20.48;;;14.20;99.90;;;;;;5085185;28;20020;-74
2022/09/01 00:21:27;;;;;;;22.40;20.00;;;14.20;99.90;;;;;;5075371;28;20066;-74
2022/09/01 00:23:53;;;;;;;22.42;19.23;;;14.20;99.90;;;;;;5073025;28;20032;-73
2022/09/01 00:26:19;;;;;;;27.92;21.88;;;14.20;99.90;;;;;;5053298;28;20037;-72
2022/09/01 00:28:44;;;;;;;25.90;22.05;;;14.10;99.90;;;;;;5072261;28;20051;-72
2022/09/01 00:31:10;;;;;;;32.67;23.35;;;14.20;99.90;;;;;;5071295;28;20052;-71
2022/09/01 00:33:36;;;;;;;26.98;22.83;;;14.10;99.90;;;;;;5073316;28;20027;-72
2022/09/01 00:36:04;;;;;;;25.58;21.23;;;14.10;99.90;;;;;;5082552;28;20036;-74
2022/09/01 00:38:30;;;;;;;29.52;22.42;;;14.10;99.90;;;;;;5072971;28;20381;-75
2022/09/01 00:40:55;;;;;;;24.15;20.58;;;14.10;99.90;;;;;;5071283;28;20024;-73
2022/09/01 00:43:37;;;;;;;29.40;26.27;;;14.10;99.90;;;;;;5073011;28;20063;-72
2022/09/01 00:46:06;;;;;;;28.02;24.95;;;14.10;99.90;;;;;;5074954;28;20028;-72
2022/09/01 00:48:31;;;;;;;26.88;23.27;;;14.10;99.90;;;;;;5075680;28;20029;-72
2022/09/01 00:50:58;;;;;;;23.73;20.35;;;14.10;99.90;;;;;;5074695;28;20036;-73
2022/09/01 00:53:24;;;;;;;26.10;21.13;;;14.00;99.90;;;;;;5075707;28;20024;-75
2022/09/01 00:55:49;;;;;;;21.33;18.20;;;14.00;99.90;;;;;;5075887;28;20039;-74
2022/09/01 00:58:15;;;;;;;22.02;18.73;;;14.00;99.90;;;;;;5075184;28;20036;-74
2022/09/01 01:00:41;;;;;;;21.70;19.33;;;14.00;99.90;;;;;;5074200;28;20037;-71
2022/09/01 01:03:12;;;;;;;21.25;17.85;;;13.90;99.90;;;;;;5074765;28;20032;-72
2022/09/01 01:05:41;;;;;;;25.02;21.23;;;13.90;99.90;;;;;;5075285;28;20028;-71
2022/09/01 01:08:10;;;;;;;23.08;20.13;;;13.90;99.90;;;;;;5074273;28;20033;-71
2022/09/01 01:10:40;;;;;;;27.95;24.02;;;13.90;99.90;;;;;;5075185;28;20059;-72
2022/09/01 01:13:15;;;;;;;26.95;23.05;;;13.90;99.90;;;;;;5074159;28;20473;-72
2022/09/01 01:15:45;;;;;;;29.90;24.13;;;13.80;99.90;;;;;;5075177;28;20040;-72
2022/09/01 01:18:13;;;;;;;33.70;24.40;;;13.90;99.90;;;;;;5073227;28;20037;-72
2022/09/01 01:23:39;;;;;;;23.70;21.20;;;13.90;99.90;;;;;;5075334;28;20043;-73
2022/09/01 01:26:09;;;;;;;24.25;21.38;;;13.90;99.90;;;;;;5074378;28;20039;-74
2022/09/01 01:28:38;;;;;;;24.98;21.25;;;13.90;99.90;;;;;;5074677;28;20032;-75
2022/09/01 01:31:17;;;;;;;22.80;19.98;;;13.90;99.90;;;;;;5074189;28;20032;-75
2022/09/01 01:33:48;;;;;;;23.98;20.75;;;13.90;99.90;;;;;;5073628;28;20040;-73
2022/09/01 01:36:18;;;;;;;23.05;19.90;;;13.90;99.90;;;;;;5074027;28;20111;-74
2022/09/01 01:38:48;;;;;;;23.02;20.20;;;13.80;99.90;;;;;;5075228;28;20021;-74
2022/09/01 01:41:18;;;;;;;25.63;20.13;;;13.80;99.90;;;;;;5074207;28;20040;-74
2022/09/01 01:43:44;;;;;;;27.05;21.83;;;13.80;99.90;;;;;;5074806;28;20495;-74
2022/09/01 01:46:11;;;;;;;24.38;21.45;;;13.80;99.90;;;;;;5073644;28;20078;-73
2022/09/01 01:48:40;;;;;;;24.65;19.70;;;13.80;99.90;;;;;;5074900;28;20028;-73
2022/09/01 01:51:06;;;;;;;24.52;20.70;;;13.80;99.90;;;;;;5072648;28;20029;-74
2022/09/01 01:53:33;;;;;;;23.40;18.90;;;13.80;99.90;;;;;;5074056;28;20028;-72
2022/09/01 01:55:59;;;;;;;22.42;19.55;;;13.70;99.90;;;;;;5073940;28;20029;-73
2022/09/01 01:58:27;;;;;;;22.73;18.83;;;13.70;99.90;;;;;;5074383;28;20032;-75
2022/09/01 02:00:55;;;;;;;20.40;18.08;;;13.70;99.90;;;;;;5074489;28;20126;-75
2022/09/01 02:03:25;;;;;;;20.88;18.13;;;13.70;99.90;;;;;;5073788;28;20116;-74
2022/09/01 02:05:55;;;;;;;;;;;13.60;99.90;;;;;;5073429;28;20044;-74
2022/09/01 02:08:24;;;;;;;20.88;18.08;;;13.60;99.90;;;;;;5073839;28;19916;-74
2022/09/01 02:10:52;;;;;;;20.87;17.57;;;13.60;99.90;;;;;;5073936;28;20405;-75
2022/09/01 02:13:23;;;;;;;20.67;18.38;;;13.50;99.90;;;;;;5073402;28;20021;-73
2022/09/01 02:15:53;;;;;;;23.98;20.38;;;13.50;99.90;;;;;;5074378;28;20373;-74
2022/09/01 02:18:27;;;;;;;23.77;19.27;;;13.50;99.90;;;;;;5073476;28;20139;-72
2022/09/01 02:20:54;;;;;;;27.85;22.00;;;13.50;99.90;;;;;;5073753;28;20516;-73
2022/09/01 02:23:24;;;;;;;29.45;25.30;;;13.50;99.90;;;;;;5072051;28;20268;-73
2022/09/01 02:25:53;;;;;;;29.00;23.38;;;13.50;99.90;;;;;;5073658;28;20365;-74
2022/09/01 02:28:21;;;;;;;34.13;24.02;;;13.60;99.90;;;;;;5073035;28;20029;-74
2022/09/01 02:31:02;;;;;;;30.75;25.20;;;13.60;99.90;;;;;;5074587;28;20025;-72
2022/09/01 02:33:30;;;;;;;30.13;24.45;;;13.60;99.90;;;;;;5073967;28;20483;-73
2022/09/01 02:35:59;;;;;;;31.45;26.27;;;13.60;99.90;;;;;;5073811;28;20032;-75
2022/09/01 02:38:27;;;;;;;32.35;25.90;;;13.60;99.90;;;;;;5072243;28;20025;-74
2022/09/01 02:40:55;;;;;;;32.45;26.50;;;13.70;99.90;;;;;;5073624;28;20029;-73
2022/09/01 02:43:21;;;;;;;31.73;25.00;;;13.70;99.90;;;;;;5072943;28;20661;-74
2022/09/01 02:45:50;;;;;;;26.80;23.83;;;13.80;99.90;;;;;;5073178;28;20108;-73
2022/09/01 02:48:17;;;;;;;41.53;24.50;;;13.80;99.90;;;;;;5072538;28;20025;-73
2022/09/01 02:50:43;;;;;;;27.83;22.20;;;13.80;99.90;;;;;;5073530;28;20107;-73
2022/09/01 02:53:10;;;;;;;24.08;20.48;;;13.80;99.90;;;;;;5072559;28;20028;-73
2022/09/01 02:55:38;;;;;;;23.65;19.70;;;13.80;99.90;;;;;;5071954;28;20037;-73
2022/09/01 02:58:03;;;;;;;21.55;19.23;;;13.80;99.90;;;;;;5072338;28;20029;-74
2022/09/01 03:00:30;;;;;;;24.92;21.75;;;13.70;99.90;;;;;;5073245;28;20074;-74
2022/09/01 03:02:58;;;;;;;25.08;19.63;;;13.70;99.90;;;;;;5073174;28;20033;-75
2022/09/01 03:05:28;;;;;;;23.33;19.45;;;13.70;99.90;;;;;;5071617;28;20048;-75
2022/09/01 03:07:58;;;;;;;28.15;22.83;;;13.60;99.90;;;;;;5073056;28;20037;-75
2022/09/01 03:10:32;;;;;;;26.60;21.33;;;13.60;99.90;;;;;;5072159;28;20035;-75
2022/09/01 03:13:00;;;;;;;33.15;24.27;;;13.50;99.90;;;;;;5071888;28;20063;-73
2022/09/01 03:15:26;;;;;;;29.20;23.77;;;13.40;99.90;;;;;;5072256;28;20051;-73
2022/09/01 03:17:52;;;;;;;30.80;24.98;;;13.40;99.90;;;;;;5072965;28;20393;-73
2022/09/01 03:20:18;;;;;;;30.83;23.83;;;13.40;99.90;;;;;;5072172;28;20085;-74
2022/09/01 03:22:46;;;;;;;25.50;22.80;;;13.30;99.90;;;;;;5072733;28;20036;-74
2022/09/01 03:25:12;;;;;;;35.17;26.33;;;13.30;99.90;;;;;;5054209;28;20025;-74
2022/09/01 03:27:38;;;;;;;40.65;29.23;;;13.30;99.90;;;;;;5070746;28;20548;-74
2022/09/01 03:30:04;;;;;;;30.27;26.00;;;13.30;99.90;;;;;;5071951;28;20131;-74
2022/09/01 03:32:30;;;;;;;35.92;29.25;;;13.20;99.90;;;;;;5072326;28;20025;-74
2022/09/01 03:34:56;;;;;;;33.22;27.15;;;13.30;99.90;;;;;;5072081;28;20381;-74
2022/09/01 03:37:22;;;;;;;29.58;24.98;;;13.20;99.90;;;;;;5071764;28;20032;-73
2022/09/01 03:39:47;;;;;;;30.35;24.67;;;13.20;99.90;;;;;;5072469;28;20436;-73
2022/09/01 03:42:24;;;;;;;29.80;24.17;;;13.20;99.90;;;;;;5071614;28;20028;-73
2022/09/01 03:44:53;;;;;;;40.55;28.42;;;13.20;99.90;;;;;;5071890;28;20461;-74
2022/09/01 03:47:20;;;;;;;35.45;27.77;;;13.10;99.90;;;;;;5071494;28;20041;-74
2022/09/01 03:49:48;;;;;;;32.55;25.48;;;;;;;;;;5072565;28;20043;-74
2022/09/01 03:52:16;;;;;;;28.40;25.05;;;;;;;;;;5071634;28;20454;-75
2022/09/01 03:54:42;;;;;;;34.55;26.67;;;;;;;;;;5072468;28;20381;-75
2022/09/01 03:57:09;;;;;;;37.90;29.60;;;;;;;;;;5071429;28;20449;-74
2022/09/01 03:59:36;;;;;;;35.30;26.80;;;;;;;;;;5072474;28;20047;-74
2022/09/01 04:02:03;;;;;;;35.03;27.80;;;;;;;;;;5072046;28;20024;-74
2022/09/01 04:04:32;;;;;;;37.72;28.95;;;;;;;;;;5070189;28;20020;-75
2022/09/01 04:06:59;;;;;;;39.70;29.88;;;;;;;;;;5072103;28;20034;-75
2022/09/01 04:09:25;;;;;;;37.33;30.20;;;;;;;;;;5071401;28;20210;-74
2022/09/01 04:11:51;;;;;;;40.10;28.88;;;;;;;;;;5071950;28;20024;-74
2022/09/01 04:14:17;;;;;;;34.95;26.90;;;;;;;;;;5071348;28;20043;-74
2022/09/01 04:19:29;;;;;;;39.10;29.52;;;;;;;;;;5071282;28;20110;-74
2022/09/01 04:21:58;;;;;;;37.70;28.63;;;;;;;;;;5069612;28;20028;-73
2022/09/01 04:24:26;;;;;;;30.65;25.65;;;;;;;;;;5069894;28;20082;-74
2022/09/01 04:26:57;;;;;;;39.85;29.88;;;;;;;;;;5070501;28;20067;-73
2022/09/01 04:29:26;;;;;;;39.85;29.52;;;;;;;;;;5069811;28;20016;-74
2022/09/01 04:31:55;;;;;;;35.05;28.05;;;;;;;;;;5070158;28;20070;-74
2022/09/01 04:34:22;;;;;;;33.75;27.85;;;;;;;;;;5069395;28;20078;-72
2022/09/01 04:36:54;;;;;;;35.53;28.00;;;;;;;;;;5069118;28;20032;-75
2022/09/01 04:39:21;;;;;;;38.15;28.25;;;;;;;;;;5069524;28;20374;-74
2022/09/01 04:41:49;;;;;;;37.33;29.48;;;;;;;;;;5070170;28;20031;-74
2022/09/01 04:44:17;;;;;;;35.83;27.13;;;;;;;;;;5067392;28;20045;-74
2022/09/01 04:46:49;;;;;;;39.20;29.00;;;;;;;;;;5070041;28;20025;-73
2022/09/01 04:49:19;;;;;;;36.20;28.42;;;;;;;;;;5051306;28;20025;-74
2022/09/01 04:51:47;;;;;;;42.63;27.75;;;;;;;;;;5069767;28;20075;-74
2022/09/01 04:54:13;;;;;;;33.90;26.80;;;;;;;;;;5067964;28;20052;-73
2022/09/01 04:56:43;;;;;;;31.50;25.30;;;;;;;;;;5071692;28;20082;-73
2022/09/01 04:59:09;;;;;;;;;;;;;;;;;;5071205;28;20048;-73
2022/09/01 05:01:42;;;;;;;39.85;29.58;;;;;;;;;;5071651;28;19904;-74
2022/09/01 05:04:19;;;;;;;39.22;28.48;;;;;;;;;;5070587;28;20024;-73
2022/09/01 05:06:48;;;;;;;37.05;28.67;;;;;;;;;;5071318;28;20029;-74
2022/09/01 05:09:16;;;;;;;31.15;26.13;;;;;;;;;;5069195;28;20146;-73
2022/09/01 05:11:44;;;;;;;34.67;26.08;;;;;;;;;;5071315;28;20111;-73
2022/09/01 05:14:11;;;;;;;31.77;25.65;;;;;;;;;;5070333;28;20104;-74
2022/09/01 05:16:39;;;;;;;33.85;26.05;;;;;;;;;;5071579;28;20032;-75
2022/09/01 05:19:06;;;;;;;34.85;27.20;;;;;;;;;;5071109;28;20027;-74
2022/09/01 05:21:32;;;;;;;33.05;24.45;;;;;;;;;;5071360;28;20060;-73
2022/09/01 05:24:00;;;;;;;28.17;22.90;;;;;;;;;;5052136;28;20028;-73
2022/09/01 05:26:32;;;;;;;38.78;28.02;;;;;;;;;;5070608;28;20054;-75
2022/09/01 05:28:59;;;;;;;35.47;27.90;;;;;;;;;;5067706;28;20016;-73
2022/09/01 05:31:26;;;;;;;33.00;26.65;;;;;;;;;;5073217;28;20086;-73
2022/09/01 05:33:52;;;;;;;37.42;27.67;;;;;;;;;;5066332;28;20116;-73
2022/09/01 05:36:21;;;;;;;34.00;25.98;;;;;;;;;;5069341;28;20489;-73
2022/09/01 05:38:48;;;;;;;31.40;25.77;;;;;;;;;;5066931;28;20043;-73
2022/09/01 05:41:15;;;;;;;28.02;24.05;;;;;;;;;;5070999;28;20035;-73
2022/09/01 05:43:45;;;;;;;32.40;26.10;;;;;;;;;;5054783;28;20040;-73
2022/09/01 05:46:15;;;;;;;27.75;22.95;;;;;;;;;;5072186;28;20056;-73
2022/09/01 05:48:41;;;;;;;26.88;23.75;;;;;;;;;;5067313;28;20220;-72
2022/09/01 05:51:08;;;;;;;29.20;23.88;;;;;;;;;;5073866;28;20469;-73
2022/09/01 05:53:34;;;;;;;31.38;24.02;;;;;;;;;;5068872;28;20028;-73
2022/09/01 05:56:05;;;;;;;30.45;25.67;;;;;;;;;;5052917;28;20033;-72
2022/09/01 05:58:33;;;;;;;28.70;24.98;;;;;;;;;;5063111;28;20029;-73
2022/09/01 06:01:00;;;;;;;29.17;24.70;;;;;;;;;;5053841;28;20454;-73
2022/09/01 06:03:26;;;;;;;31.13;25.65;;;;;;;;;;5053278;28;20819;-73
2022/09/01 06:05:53;;;;;;;29.58;23.92;;;;;;;;;;5062494;28;20027;-72
2022/09/01 06:08:20;;;;;;;29.75;24.45;;;;;;;;;;5070130;28;20047;-73
2022/09/01 06:10:47;;;;;;;26.02;22.17;;;;;;;;;;5053806;28;20021;-73
2022/09/01 06:13:15;;;;;;;24.77;21.08;;;;;;;;;;5052870;28;20071;-72
2022/09/01 06:15:43;;;;;;;24.75;20.90;;;;;;;;;;5070919;28;20039;-72
2022/09/01 06:18:10;;;;;;;26.33;23.38;;;;;;;;;;5076410;28;20059;-73
2022/09/01 06:20:41;;;;;;;28.50;23.67;;;;;;;;;;5055501;28;20082;-72
2022/09/01 06:23:07;;;;;;;24.95;21.63;;;;;;;;;;5066257;28;20024;-72
2022/09/01 06:25:36;;;;;;;26.52;22.67;;;;;;;;;;5066198;28;20502;-73
2022/09/01 06:28:03;;;;;;;22.33;19.92;;;;;;;;;;5064936;28;20040;-74
2022/09/01 06:30:29;;;;;;;21.88;19.48;;;;;;;;;;5064416;28;20211;-72
2022/09/01 06:32:55;;;;;;;22.92;18.48;;;;;;;;;;5073048;28;20052;-72
2022/09/01 06:35:23;;;;;;;26.00;20.67;;;;;;;;;;5055638;28;20029;-71
2022/09/01 06:37:50;;;;;;;26.75;20.80;;;;;;;;;;5066164;28;20029;-75
2022/09/01 06:40:16;;;;;;;24.85;20.05;;;15.80;99.90;;;;;;5062238;28;20094;-75
2022/09/01 06:42:51;;;;;;;25.05;19.45;;;15.90;99.90;;;;;;5068027;28;20381;-73
2022/09/01 06:45:20;;;;;;;27.50;20.17;;;15.90;99.90;;;;;;5062655;28;20054;-74
2022/09/01 06:47:47;;;;;;;23.17;18.73;;;16.00;99.90;;;;;;5072909;28;20515;-74
2022/09/01 06:50:20;;;;;;;22.42;18.77;;;16.10;99.90;;;;;;5069588;28;20024;-73
2022/09/01 06:52:48;;;;;;;23.58;19.33;;;16.10;99.90;;;;;;5072702;28;20024;-74
2022/09/01 06:55:15;;;;;;;22.13;19.13;;;16.20;99.90;;;;;;5070451;28;20033;-73
2022/09/01 06:57:44;;;;;;;23.55;20.35;;;16.30;99.90;;;;;;5071870;28;20036;-75
2022/09/01 07:00:19;;;;;;;18.80;16.77;;;16.40;99.90;;;;;;5053780;28;20101;-72
2022/09/01 07:02:47;;;;;;;21.35;18.88;;;16.50;99.90;;;;;;5056886;28;20021;-73
2022/09/01 07:05:18;;;;;;;22.35;18.05;;;16.60;99.90;;;;;;5060993;28;20568;-73
2022/09/01 07:07:54;;;;;;;22.67;18.63;;;16.60;99.90;;;;;;5072517;28;20119;-72
2022/09/01 07:10:25;;;;;;;19.73;16.98;;;16.70;99.90;;;;;;5068443;28;20489;-72
2022/09/01 07:12:55;;;;;;;21.17;17.45;;;16.80;99.90;;;;;;5071623;28;20020;-75
2022/09/01 07:15:22;;;;;;;18.10;16.20;;;17.00;99.90;;;;;;5050652;28;20397;-72
2022/09/01 07:17:51;;;;;;;17.00;14.43;;;17.20;99.90;;;;;;5053811;28;20115;-73
2022/09/01 07:20:20;;;;;;;19.20;17.13;;;17.30;99.90;;;;;;5069789;28;20028;-73
2022/09/01 07:22:50;;;;;;;17.73;15.93;;;17.40;99.90;;;;;;5072082;28;20070;-73
2022/09/01 07:25:16;;;;;;;16.08;14.48;;;17.60;99.90;;;;;;5062029;28;20032;-72
2022/09/01 07:27:50;;;;;;;18.60;16.02;;;17.60;99.90;;;;;;5071080;28;20043;-72
2022/09/01 07:30:17;;;;;;;17.58;15.05;;;17.80;99.90;;;;;;5068457;28;20031;-69
2022/09/01 07:32:45;;;;;;;17.95;15.50;;;18.00;99.90;;;;;;5071797;28;20489;-73
2022/09/01 07:35:17;;;;;;;19.77;15.65;;;18.20;99.90;;;;;;5060019;28;20059;-74
2022/09/01 07:37:43;;;;;;;18.60;15.13;;;18.20;99.90;;;;;;5072905;28;20840;-71
2022/09/01 07:40:18;;;;;;;17.77;15.98;;;18.10;99.90;;;;;;5069887;28;20100;-71
2022/09/01 07:42:52;;;;;;;17.23;15.18;;;18.10;99.90;;;;;;5055031;28;20065;-70
2022/09/01 07:45:18;;;;;;;18.45;15.27;;;18.00;99.90;;;;;;5069561;28;20504;-71
2022/09/01 07:47:44;;;;;;;17.02;15.23;;;18.00;99.90;;;;;;5071921;28;20032;-71
2022/09/01 07:50:14;;;;;;;17.27;15.45;;;18.10;99.90;;;;;;5069865;28;20033;-71
2022/09/01 07:52:43;;;;;;;15.57;13.70;;;18.10;99.90;;;;;;5074006;28;20023;-70
2022/09/01 07:55:11;;;;;;;16.63;14.67;;;18.20;99.90;;;;;;5079426;28;20103;-71
2022/09/01 07:57:41;;;;;;;15.38;13.77;;;18.20;99.90;;;;;;5079034;28;20035;-71
2022/09/01 08:00:14;;;;;;;16.42;13.00;;;18.40;99.90;;;;;;5084612;28;20046;-71
2022/09/01 08:02:43;;;;;;;15.15;12.45;;;18.50;99.90;;;;;;5074302;28;20493;-71
2022/09/01 08:05:16;;;;;;;17.30;14.05;;;18.50;99.90;;;;;;5072806;28;20024;-71
2022/09/01 08:07:46;;;;;;;14.35;12.43;;;18.70;99.90;;;;;;5084164;28;20079;-70
2022/09/01 08:10:12;;;;;;;14.00;12.43;;;18.80;99.90;;;;;;5088902;28;20137;-71
2022/09/01 08:12:38;;;;;;;16.40;11.98;;;18.80;99.90;;;;;;5073539;28;20024;-70
2022/09/01 08:15:05;;;;;;;12.02;10.45;;;18.80;99.90;;;;;;5070433;28;20073;-71
2022/09/01 08:17:31;;;;;;;11.73;10.50;;;18.90;99.90;;;;;;5080457;28;20035;-73
2022/09/01 08:19:56;;;;;;;12.20;10.32;;;19.00;99.90;;;;;;5084272;28;20028;-72
2022/09/01 08:22:24;;;;;;;10.32;8.52;;;19.10;99.90;;;;;;5073506;28;20038;-72
2022/09/01 08:24:51;;;;;;;11.60;9.68;;;19.20;99.90;;;;;;5068433;28;20443;-71
2022/09/01 08:27:17;;;;;;;12.68;10.10;;;19.30;99.90;;;;;;5081665;28;20029;-72
2022/09/01 08:29:43;;;;;;;12.45;10.45;;;19.50;99.90;;;;;;5080185;28;20025;-74
2022/09/01 08:32:10;;;;;;;9.73;8.73;;;19.60;99.90;;;;;;5075697;28;20028;-74
2022/09/01 08:34:36;;;;;;;10.73;9.40;;;19.70;99.90;;;;;;5066522;28;20585;-73
2022/09/01 08:37:03;;;;;;;13.15;8.63;;;19.80;99.90;;;;;;5079842;28;20039;-73
2022/09/01 08:39:29;;;;;;;9.30;8.25;;;19.90;99.90;;;;;;5084530;28;20024;-72
2022/09/01 08:42:03;;;;;;;11.98;9.88;;;19.90;99.90;;;;;;5076561;28;20039;-73
2022/09/01 08:45:17;;;;;;;13.18;9.77;;;19.90;99.90;;;;;;5055882;28;20490;-73
2022/09/01 08:47:42;;;;;;;10.90;8.95;;;19.80;99.90;;;;;;4988035;28;20399;-71
2022/09/01 08:50:11;;;;;;;10.18;9.13;;;19.80;99.90;;;;;;5031832;28;20028;-71
2022/09/01 08:52:46;;;;;;;9.30;8.38;;;19.70;99.90;;;;;;5048724;28;20474;-70
2022/09/01 08:55:30;;;;;;;11.00;8.40;;;19.50;99.90;;;;;;5049915;28;20025;-71
2022/09/01 08:57:59;;;;;;;8.50;7.70;;;19.40;99.90;;;;;;5049780;28;20029;-72
2022/09/01 09:00:28;;;;;;;10.18;8.20;;;19.30;99.90;;;;;;5049448;28;20041;-72
2022/09/01 09:03:21;;;;;;;11.23;9.48;;;19.30;99.90;;;;;;5050759;28;20021;-69
2022/09/01 09:06:13;;;;;;;9.80;8.90;;;19.30;99.90;;;;;;5047260;28;20025;-70
2022/09/01 09:08:51;;;;;;;9.73;7.93;;;19.50;99.90;;;;;;5037313;28;20051;-72
2022/09/01 09:11:40;;;;;;;7.57;6.85;;;19.60;99.90;;;;;;5053556;28;20021;-72
2022/09/01 09:14:43;;;;;;;9.70;8.35;;;19.80;99.90;;;;;;5046376;28;20028;-73
2022/09/01 09:17:12;;;;;;;10.50;8.00;;;19.90;99.90;;;;;;5044756;28;20052;-69
2022/09/01 09:19:43;;;;;;;8.57;7.38;;;19.90;99.90;;;;;;5057060;28;20617;-69
2022/09/01 09:22:11;;;;;;;9.57;8.27;;;20.00;99.90;;;;;;5054536;28;20025;-68
2022/09/01 09:24:54;;;;;;;7.97;6.97;;;20.00;99.90;;;;;;5047182;28;20021;-72
2022/09/01 09:27:25;;;;;;;13.25;7.88;;;20.00;99.90;;;;;;5055814;28;20502;-71
2022/09/01 09:30:05;;;;;;;9.38;8.20;;;20.00;99.90;;;;;;5052000;28;20025;-70
2022/09/01 09:32:48;;;;;;;9.43;8.27;;;20.10;99.90;;;;;;5053126;28;20064;-70
2022/09/01 09:35:20;;;;;;;7.80;7.00;;;20.30;99.90;;;;;;5043568;28;20066;-69
2022/09/01 09:37:46;;;;;;;8.40;7.50;;;20.30;99.90;;;;;;5053872;28;20076;-69
2022/09/01 09:40:30;;;;;;;8.80;7.90;;;20.40;99.90;;;;;;5035997;28;20029;-70
2022/09/01 09:42:55;;;;;;;8.07;7.28;;;20.50;99.90;;;;;;5047290;28;20070;-70
2022/09/01 09:45:22;;;;;;;7.53;6.70;;;20.50;99.90;;;;;;5068816;28;20052;-70
2022/09/01 09:47:48;;;;;;;9.32;5.88;;;20.60;99.90;;;;;;5073876;28;20052;-70
2022/09/01 09:50:23;;;;;;;7.95;7.15;;;20.60;99.90;;;;;;5071660;28;20104;-70
2022/09/01 09:52:50;;;;;;;7.75;6.43;;;20.70;99.90;;;;;;5073988;28;20066;-70
2022/09/01 09:55:23;;;;;;;6.28;5.68;;;20.90;99.90;;;;;;5071952;28;20036;-70
2022/09/01 09:57:52;;;;;;;8.32;5.95;;;21.20;99.90;;;;;;5073244;28;20040;-70
2022/09/01 10:00:38;;;;;;;6.55;5.80;;;21.30;99.90;;;;;;5069891;28;20456;-68
2022/09/01 10:03:11;;;;;;;6.22;5.63;;;21.40;99.90;;;;;;5072323;28;20420;-69
2022/09/01 10:05:56;;;;;;;6.25;5.65;;;21.50;99.90;;;;;;5064108;28;20568;-69
2022/09/01 10:08:36;;;;;;;6.97;6.28;;;21.40;99.90;;;;;;5069909;28;20406;-68
2022/09/01 10:11:04;;;;;;;8.50;6.43;;;21.30;99.90;;;;;;5073120;28;20028;-69
2022/09/01 10:13:31;;;;;;;6.00;5.50;;;21.30;99.90;;;;;;5059710;28;20378;-69
2022/09/01 10:16:00;;;;;;;5.75;5.25;;;21.30;99.90;;;;;;5072887;28;20021;-69
2022/09/01 10:18:33;;;;;;;6.45;5.40;;;21.40;99.90;;;;;;5069777;28;20029;-70
2022/09/01 10:21:08;;;;;;;5.85;4.82;;;21.50;99.90;;;;;;5068976;28;20484;-69
2022/09/01 10:23:36;;;;;;;5.90;5.28;;;21.60;99.90;;;;;;5063058;28;20029;-71
2022/09/01 10:26:20;;;;;;;6.82;5.10;;;21.60;99.90;;;;;;5072474;28;20031;-70
2022/09/01 10:29:14;;;;;;;6.72;5.13;;;21.50;99.90;;;;;;5061956;28;20039;-69
2022/09/01 10:31:40;;;;;;;7.07;4.80;;;21.40;99.90;;;;;;5072436;28;20021;-70
2022/09/01 10:34:12;;;;;;;3.83;3.50;;;21.60;99.90;;;;;;5071661;28;20025;-68
2022/09/01 10:36:41;;;;;;;4.45;4.05;;;21.60;99.90;;;;;;5055575;28;20028;-69
2022/09/01 10:39:11;;;;;;;6.43;4.20;;;21.60;99.90;;;;;;5071725;28;20025;-72
2022/09/01 10:41:49;;;;;;;;;;;21.80;99.90;;;;;;5071824;28;20434;-69
2022/09/01 10:44:37;;;;;;;4.40;4.00;;;22.00;99.90;;;;;;5068522;28;19920;-70
2022/09/01 10:47:23;;;;;;;3.60;3.30;;;22.40;99.90;;;;;;5059455;28;20485;-72
2022/09/01 10:49:49;;;;;;;4.18;3.78;;;22.60;99.90;;;;;;5070377;28;20017;-72
2022/09/01 10:52:40;;;;;;;3.78;3.42;;;22.90;99.90;;;;;;5070830;28;20039;-72
2022/09/01 10:55:10;;;;;;;5.85;3.42;;;23.20;99.90;;;;;;5061151;28;20021;-71
2022/09/01 10:57:42;;;;;;;4.22;3.80;;;23.50;99.90;;;;;;5071718;28;20339;-71
2022/09/01 11:00:23;;;;;;;4.40;3.55;;;24.00;99.90;;;;;;5070154;28;20104;-70
2022/09/01 11:03:10;;;;;;;4.15;3.75;;;24.10;98.90;;;;;;5057290;28;20059;-71
2022/09/01 11:05:54;;;;;;;3.85;3.13;;;24.20;97.70;;;;;;5062514;28;20024;-71
2022/09/01 11:08:26;;;;;;;4.35;3.95;;;24.20;98.00;;;;;;5070501;28;20040;-70
2022/09/01 11:11:06;;;;;;;4.57;3.28;;;23.80;97.80;;;;;;5056914;28;20029;-71
2022/09/01 11:13:49;;;;;;;3.50;3.20;;;23.40;98.40;;;;;;5066492;28;20033;-73
2022/09/01 11:16:37;;;;;;;5.00;4.50;;;23.10;99.40;;;;;;5053697;28;20064;-73
2022/09/01 11:19:27;;;;;;;4.68;4.18;;;22.70;99.90;;;;;;5070222;28;20017;-75
2022/09/01 11:22:24;;;;;;;5.57;4.60;;;22.60;99.90;;;;;;5072516;28;20049;-73
2022/09/01 11:25:13;;;;;;;5.63;3.67;;;22.40;99.90;;;;;;5056586;28;20093;-73
2022/09/01 11:27:47;;;;;;;4.93;4.40;;;22.40;99.90;;;;;;5061944;28;20614;-74
2022/09/01 11:30:50;;;;;;;5.40;3.78;;;22.70;99.90;;;;;;5070377;28;20086;-73
2022/09/01 11:33:28;;;;;;;4.28;3.00;;;23.20;99.90;;;;;;5066585;28;20139;-73
2022/09/01 11:36:11;;;;;;;3.60;3.30;;;23.60;99.60;;;;;;5065380;28;20032;-73
2022/09/01 11:38:50;;;;;;;3.80;3.30;;;23.70;99.00;;;;;;5068502;28;20025;-73
2022/09/01 11:41:44;;;;;;;4.05;3.28;;;23.60;98.50;;;;;;5070952;28;20077;-71
2022/09/01 11:44:23;;;;;;;5.75;3.38;;;23.60;98.80;;;;;;5030551;28;20048;-72
2022/09/01 11:46:51;;;;;;;3.42;3.13;;;23.90;98.30;;;;;;5069388;28;20032;-71
2022/09/01 11:49:28;;;;;;;3.42;3.03;;;24.10;98.10;;;;;;5069461;28;20055;-71
2022/09/01 11:51:56;;;;;;;4.10;3.55;;;24.40;97.40;;;;;;5071448;28;20024;-70
2022/09/01 11:54:23;;;;;;;3.92;3.47;;;24.70;96.80;;;;;;5059308;28;20032;-67
2022/09/01 11:56:49;;;;;;;4.57;2.75;;;25.10;96.40;;;;;;5071120;28;20111;-69
2022/09/01 11:59:37;;;;;;;5.20;3.20;;;25.30;95.70;;;;;;5069161;28;20552;-69
2022/09/01 12:02:04;;;;;;;5.55;3.00;;;25.20;95.30;;;;;;5071606;28;20060;-71
2022/09/01 12:04:34;;;;;;;4.60;2.80;;;24.90;95.60;;;;;;5059783;28;20105;-69
2022/09/01 12:07:09;;;;;;;3.90;3.00;;;24.80;95.40;;;;;;5071533;28;20036;-72
2022/09/01 12:09:41;;;;;;;4.18;3.17;;;24.80;95.80;;;;;;5069060;28;20087;-73
2022/09/01 12:12:42;;;;;;;3.53;2.90;;;24.80;95.80;;;;;;5078489;28;20040;-72
2022/09/01 12:15:19;;;;;;;5.78;3.35;;;24.70;94.90;;;;;;5070774;28;20021;-74
2022/09/01 12:17:45;;;;;;;3.22;2.63;;;24.80;94.60;;;;;;5080314;28;20051;-75
2022/09/01 12:20:29;;;;;;;3.38;3.15;;;25.20;94.90;;;;;;5082066;28;20052;-74
2022/09/01 12:22:57;;;;;;;3.13;2.92;;;25.60;94.10;;;;;;5068045;28;20036;-73
2022/09/01 12:25:31;;;;;;;4.45;2.97;;;26.10;93.40;;;;;;5065069;28;20063;-71
2022/09/01 12:28:04;;;;;;;3.35;3.05;;;26.00;93.00;;;;;;5070885;28;20028;-72
2022/09/01 12:30:34;;;;;;;3.33;3.03;;;25.70;93.20;;;;;;5069283;28;20428;-74
2022/09/01 12:33:02;;;;;;;2.93;2.63;;;25.30;93.30;;;;;;5070684;28;20028;-73
2022/09/01 12:35:28;;;;;;;3.53;3.22;;;24.90;93.40;;;;;;5070002;28;20263;-74
2022/09/01 12:38:19;;;;;;;3.55;3.00;;;24.80;93.90;;;;;;5072959;28;20111;-73
2022/09/01 12:40:51;;;;;;;3.10;2.80;;;25.10;93.60;;;;;;5072458;28;20033;-74
2022/09/01 12:43:33;;;;;;;4.55;3.17;;;25.30;93.90;;;;;;5072822;28;20051;-74
2022/09/01 12:46:00;;;;;;;4.65;3.28;;;25.20;93.70;;;;;;5072039;28;20040;-75
2022/09/01 12:48:36;;;;;;;3.00;2.80;;;24.90;93.20;;;;;;5058122;28;20041;-76
2022/09/01 12:51:22;;;;;;;5.57;3.10;;;24.60;94.00;;;;;;5074824;28;20354;-75
2022/09/01 12:53:57;;;;;;;3.03;2.78;;;24.40;94.00;;;;;;5066896;28;20032;-73
2022/09/01 12:56:33;;;;;;;3.15;2.78;;;24.70;94.30;;;;;;5072353;28;20493;-72
2022/09/01 12:59:24;;;;;;;3.03;2.80;;;25.40;92.90;;;;;;5072538;28;20028;-72
2022/09/01 13:01:50;;;;;;;2.78;2.58;;;26.00;91.40;;;;;;5074808;28;20477;-73
2022/09/01 13:04:29;;;;;;;3.20;3.00;;;26.20;90.80;;;;;;5066070;28;20031;-73
2022/09/01 13:07:00;;;;;;;2.88;2.60;;;26.30;90.50;;;;;;5073341;28;20028;-74
2022/09/01 13:09:26;;;;;;;3.03;2.83;;;26.40;90.10;;;;;;5070548;28;20035;-72
2022/09/01 13:11:52;;;;;;;3.90;2.80;;;26.40;90.30;;;;;;5074177;28;20103;-74
2022/09/01 13:14:18;;;;;;;5.60;2.97;;;26.60;90.60;;;;;;5068939;28;20078;-72
2022/09/01 13:16:44;;;;;;;3.17;2.97;;;27.00;88.90;;;;;;5073274;28;20055;-72
2022/09/01 13:19:10;;;;;;;4.80;2.85;;;27.20;93.10;;;;;;5072940;28;20119;-72
2022/09/01 13:21:36;;;;;;;3.22;3.03;;;27.50;87.40;;;;;;5073057;28;20111;-72